עמוד ראשי
METAR-TAF:

METAR-TAF

שדות תעופה :

אל-מדינה, ערב הסעודית

קו רוחב: 24-33N, קו אורך: 039-42E, גובה: 654מטר

תצפית מזג אוויר נוכחית

הדו"ח נערך לפני 1 שעות ו 7דקות, בשעה 19:00 UTC
רוח 10קשר מכיוון מערב
טמפרטורת 41 צלסיוס
לחות 7%
לחץ 1010 hPa
ראות 10 קילומטר או יותר
מעט עננים בגובה 4000רגל

METAR: OEMA 131900Z 26010KT 9999 FEW040 41/M01 Q1010 NOSIG

זמן: 23:07 (20:07 UTC)

תחזית

הדו"ח נערך לפני 3 שעות ו 7דקות, בשעה 17:00 UTC
תחזית בתוקף מ 13 ב 18 UTC עד 14 ב 24 UTC
רוח 12קשר מכיוון צפון
ראות: 7000מטר
מעט עננים בגובה 4500רגל
יעשה מ
14 ב 04 UTC עד 14 ב 06 UTC
רוח 10קשר מכיוון מזרח
יעשה מ
14 ב 12 UTC עד 14 ב 14 UTC
רוח 12קשר מכיוון מערב/צפון-מערב
יעשה מ
14 ב 18 UTC עד 14 ב 20 UTC
רוח 3קשר עם כיוונים משתנים

TAF: OEMA 131700Z 1318/1424 35012KT 7000 FEW045 BECMG 1404/1406 08010KT BECMG 1412/1414 30012KT BECMG 1418/1420 VRB03KT

תצפיות ותחזיות מזג אוויר לגבי יותר מ- 4,000 שדות תעופה ברחבי העולם. דוחות METAR ו- TAF.

התחנות הזמינות מסומנות בנקודות צהובות ואדומות על גבי המפה.

העבר את העכבר לנקודה הצבעונית על מנת לראות את שם התחנה.

לאחר מכן, לחץ כדי לראות את תוכן ואת תחזיות מזג האוויר.

כדי לשנות את המפה: לחץ על הכפתורים הירוקים עם הפלוס השחור כדי להתקרב; על הכפתור הירוק עם המקף כדי להתרחק; או בחיצים הירוקים למפות סמוכות.


METAR-TAF: